sensor_id;sensor_type;location;lat;lon;timestamp;temperature;humidity
21662;DHT22;10992;48.170;8.596;2022-08-02T00:00:32;15.10;99.90
21662;DHT22;10992;48.170;8.596;2022-08-02T00:02:59;15.10;99.90
21662;DHT22;10992;48.170;8.596;2022-08-02T00:05:26;15.00;99.90
21662;DHT22;10992;48.170;8.596;2022-08-02T00:07:53;15.00;99.90
21662;DHT22;10992;48.170;8.596;2022-08-02T00:10:19;15.10;99.90
21662;DHT22;10992;48.170;8.596;2022-08-02T00:12:46;15.20;99.90
21662;DHT22;10992;48.170;8.596;2022-08-02T00:15:13;15.20;99.90
21662;DHT22;10992;48.170;8.596;2022-08-02T00:17:42;15.30;99.90
21662;DHT22;10992;48.170;8.596;2022-08-02T00:20:10;15.30;99.90
21662;DHT22;10992;48.170;8.596;2022-08-02T00:22:38;15.50;99.90
21662;DHT22;10992;48.170;8.596;2022-08-02T00:25:06;15.50;99.90
21662;DHT22;10992;48.170;8.596;2022-08-02T00:27:33;15.60;99.90
21662;DHT22;10992;48.170;8.596;2022-08-02T00:30:00;15.60;99.90
21662;DHT22;10992;48.170;8.596;2022-08-02T00:32:27;15.60;99.90
21662;DHT22;10992;48.170;8.596;2022-08-02T00:34:54;15.60;99.90
21662;DHT22;10992;48.170;8.596;2022-08-02T00:37:21;15.50;99.90
21662;DHT22;10992;48.170;8.596;2022-08-02T00:39:48;15.40;99.90
21662;DHT22;10992;48.170;8.596;2022-08-02T00:42:15;15.30;99.90
21662;DHT22;10992;48.170;8.596;2022-08-02T00:44:42;15.20;99.90
21662;DHT22;10992;48.170;8.596;2022-08-02T00:47:09;15.20;99.90
21662;DHT22;10992;48.170;8.596;2022-08-02T00:49:40;15.20;99.90
21662;DHT22;10992;48.170;8.596;2022-08-02T00:52:07;15.20;99.90
21662;DHT22;10992;48.170;8.596;2022-08-02T00:54:34;15.20;99.90
21662;DHT22;10992;48.170;8.596;2022-08-02T00:57:01;15.20;99.90
21662;DHT22;10992;48.170;8.596;2022-08-02T00:59:28;15.20;99.90
21662;DHT22;10992;48.170;8.596;2022-08-02T01:01:55;15.00;99.90
21662;DHT22;10992;48.170;8.596;2022-08-02T01:04:25;14.90;99.90
21662;DHT22;10992;48.170;8.596;2022-08-02T01:07:02;14.80;99.90
21662;DHT22;10992;48.170;8.596;2022-08-02T01:09:43;14.80;99.90
21662;DHT22;10992;48.170;8.596;2022-08-02T01:12:11;14.70;99.90
21662;DHT22;10992;48.170;8.596;2022-08-02T01:14:41;14.60;99.90
21662;DHT22;10992;48.170;8.596;2022-08-02T01:28:27;14.20;99.90
21662;DHT22;10992;48.170;8.596;2022-08-02T01:37:00;14.00;99.90
21662;DHT22;10992;48.170;8.596;2022-08-02T01:39:30;14.00;99.90
21662;DHT22;10992;48.170;8.596;2022-08-02T01:42:01;13.90;99.90
21662;DHT22;10992;48.170;8.596;2022-08-02T01:44:32;13.90;99.90
21662;DHT22;10992;48.170;8.596;2022-08-02T01:47:04;13.90;99.90
21662;DHT22;10992;48.170;8.596;2022-08-02T01:49:33;13.90;99.90
21662;DHT22;10992;48.170;8.596;2022-08-02T01:52:02;13.80;99.90
21662;DHT22;10992;48.170;8.596;2022-08-02T01:57:21;13.70;99.90
21662;DHT22;10992;48.170;8.596;2022-08-02T01:59:49;13.80;99.90
21662;DHT22;10992;48.170;8.596;2022-08-02T02:02:18;13.90;99.90
21662;DHT22;10992;48.170;8.596;2022-08-02T02:04:48;13.80;99.90
21662;DHT22;10992;48.170;8.596;2022-08-02T02:07:16;13.80;99.90
21662;DHT22;10992;48.170;8.596;2022-08-02T02:09:45;13.70;99.90
21662;DHT22;10992;48.170;8.596;2022-08-02T02:12:17;13.70;99.90
21662;DHT22;10992;48.170;8.596;2022-08-02T02:14:45;13.70;99.90
21662;DHT22;10992;48.170;8.596;2022-08-02T02:17:19;13.70;99.90
21662;DHT22;10992;48.170;8.596;2022-08-02T02:20:12;13.70;99.90
21662;DHT22;10992;48.170;8.596;2022-08-02T02:22:40;13.80;99.90
21662;DHT22;10992;48.170;8.596;2022-08-02T02:25:08;13.90;99.90
21662;DHT22;10992;48.170;8.596;2022-08-02T02:27:39;14.00;99.90
21662;DHT22;10992;48.170;8.596;2022-08-02T02:30:10;14.10;99.90
21662;DHT22;10992;48.170;8.596;2022-08-02T02:32:39;14.20;99.90
21662;DHT22;10992;48.170;8.596;2022-08-02T02:35:08;14.20;99.90
21662;DHT22;10992;48.170;8.596;2022-08-02T02:37:37;14.20;99.90
21662;DHT22;10992;48.170;8.596;2022-08-02T02:40:05;14.10;99.90
21662;DHT22;10992;48.170;8.596;2022-08-02T02:42:32;13.90;99.90
21662;DHT22;10992;48.170;8.596;2022-08-02T02:45:01;13.80;99.90
21662;DHT22;10992;48.170;8.596;2022-08-02T02:47:29;13.60;99.90
21662;DHT22;10992;48.170;8.596;2022-08-02T02:50:08;13.50;99.90
21662;DHT22;10992;48.170;8.596;2022-08-02T02:52:37;13.60;99.90
21662;DHT22;10992;48.170;8.596;2022-08-02T02:55:05;13.60;99.90
21662;DHT22;10992;48.170;8.596;2022-08-02T02:57:33;13.70;99.90
21662;DHT22;10992;48.170;8.596;2022-08-02T03:00:03;13.70;99.90
21662;DHT22;10992;48.170;8.596;2022-08-02T03:02:31;13.70;99.90
21662;DHT22;10992;48.170;8.596;2022-08-02T03:04:59;13.70;99.90
21662;DHT22;10992;48.170;8.596;2022-08-02T03:07:28;13.80;99.90
21662;DHT22;10992;48.170;8.596;2022-08-02T03:09:55;13.80;99.90
21662;DHT22;10992;48.170;8.596;2022-08-02T03:12:23;13.80;99.90
21662;DHT22;10992;48.170;8.596;2022-08-02T03:14:59;13.80;99.90
21662;DHT22;10992;48.170;8.596;2022-08-02T03:17:36;13.70;99.90
21662;DHT22;10992;48.170;8.596;2022-08-02T03:20:07;13.70;99.90
21662;DHT22;10992;48.170;8.596;2022-08-02T03:22:35;13.70;99.90
21662;DHT22;10992;48.170;8.596;2022-08-02T03:25:02;13.70;99.90
21662;DHT22;10992;48.170;8.596;2022-08-02T03:27:30;13.80;99.90
21662;DHT22;10992;48.170;8.596;2022-08-02T03:29:57;13.70;99.90
21662;DHT22;10992;48.170;8.596;2022-08-02T03:32:24;13.80;99.90
21662;DHT22;10992;48.170;8.596;2022-08-02T03:34:51;13.80;99.90
21662;DHT22;10992;48.170;8.596;2022-08-02T03:37:18;13.80;99.90
21662;DHT22;10992;48.170;8.596;2022-08-02T03:39:47;13.60;99.90
21662;DHT22;10992;48.170;8.596;2022-08-02T03:42:20;13.40;99.90
21662;DHT22;10992;48.170;8.596;2022-08-02T03:44:48;13.40;99.90
21662;DHT22;10992;48.170;8.596;2022-08-02T03:47:17;13.40;99.90
21662;DHT22;10992;48.170;8.596;2022-08-02T03:49:45;13.30;99.90
21662;DHT22;10992;48.170;8.596;2022-08-02T03:52:12;13.20;99.90
21662;DHT22;10992;48.170;8.596;2022-08-02T03:54:40;13.10;99.90
21662;DHT22;10992;48.170;8.596;2022-08-02T03:57:12;13.10;99.90
21662;DHT22;10992;48.170;8.596;2022-08-02T03:59:43;13.10;99.90
21662;DHT22;10992;48.170;8.596;2022-08-02T04:02:11;13.30;99.90
21662;DHT22;10992;48.170;8.596;2022-08-02T04:04:39;13.30;99.90
21662;DHT22;10992;48.170;8.596;2022-08-02T04:07:06;13.20;99.90
21662;DHT22;10992;48.170;8.596;2022-08-02T04:09:33;13.20;99.90
21662;DHT22;10992;48.170;8.596;2022-08-02T04:12:00;13.30;99.90
21662;DHT22;10992;48.170;8.596;2022-08-02T04:14:27;13.40;99.90
21662;DHT22;10992;48.170;8.596;2022-08-02T04:17:01;13.50;99.90
21662;DHT22;10992;48.170;8.596;2022-08-02T04:19:35;13.50;99.90
21662;DHT22;10992;48.170;8.596;2022-08-02T04:22:03;13.60;99.90
21662;DHT22;10992;48.170;8.596;2022-08-02T04:24:39;13.60;99.90
21662;DHT22;10992;48.170;8.596;2022-08-02T04:27:09;13.60;99.90
21662;DHT22;10992;48.170;8.596;2022-08-02T04:29:56;13.70;99.90
21662;DHT22;10992;48.170;8.596;2022-08-02T04:32:24;13.80;99.90
21662;DHT22;10992;48.170;8.596;2022-08-02T04:34:51;13.90;99.90
21662;DHT22;10992;48.170;8.596;2022-08-02T04:37:41;14.00;99.90
21662;DHT22;10992;48.170;8.596;2022-08-02T04:40:29;14.10;99.90
21662;DHT22;10992;48.170;8.596;2022-08-02T04:42:56;14.10;99.90
21662;DHT22;10992;48.170;8.596;2022-08-02T04:45:24;14.20;99.90
21662;DHT22;10992;48.170;8.596;2022-08-02T04:47:52;14.30;99.90
21662;DHT22;10992;48.170;8.596;2022-08-02T04:50:29;14.40;99.90
21662;DHT22;10992;48.170;8.596;2022-08-02T04:52:56;14.50;99.90
21662;DHT22;10992;48.170;8.596;2022-08-02T04:55:23;14.70;99.90
21662;DHT22;10992;48.170;8.596;2022-08-02T04:57:54;14.80;99.90
21662;DHT22;10992;48.170;8.596;2022-08-02T05:00:22;14.80;99.90
21662;DHT22;10992;48.170;8.596;2022-08-02T05:02:49;14.90;99.90
21662;DHT22;10992;48.170;8.596;2022-08-02T05:05:16;15.00;99.90
21662;DHT22;10992;48.170;8.596;2022-08-02T05:07:43;15.10;99.90
21662;DHT22;10992;48.170;8.596;2022-08-02T05:10:10;15.20;99.90
21662;DHT22;10992;48.170;8.596;2022-08-02T05:12:37;15.40;99.90
21662;DHT22;10992;48.170;8.596;2022-08-02T05:15:05;16.00;99.90
21662;DHT22;10992;48.170;8.596;2022-08-02T05:17:38;17.10;99.90
21662;DHT22;10992;48.170;8.596;2022-08-02T05:20:14;18.00;99.90
21662;DHT22;10992;48.170;8.596;2022-08-02T05:22:42;18.50;99.90
21662;DHT22;10992;48.170;8.596;2022-08-02T05:25:11;18.40;99.90
21662;DHT22;10992;48.170;8.596;2022-08-02T05:27:38;18.90;99.90
21662;DHT22;10992;48.170;8.596;2022-08-02T05:30:05;20.40;99.90
21662;DHT22;10992;48.170;8.596;2022-08-02T05:32:32;21.00;99.90
21662;DHT22;10992;48.170;8.596;2022-08-02T05:35:00;21.50;99.90
21662;DHT22;10992;48.170;8.596;2022-08-02T05:37:28;22.30;99.90
21662;DHT22;10992;48.170;8.596;2022-08-02T05:39:58;22.20;99.90
21662;DHT22;10992;48.170;8.596;2022-08-02T05:42:30;20.90;99.90
21662;DHT22;10992;48.170;8.596;2022-08-02T05:44:57;20.00;99.90
21662;DHT22;10992;48.170;8.596;2022-08-02T05:47:24;19.90;99.90
21662;DHT22;10992;48.170;8.596;2022-08-02T05:49:51;20.10;99.90
21662;DHT22;10992;48.170;8.596;2022-08-02T05:52:19;20.50;99.90
21662;DHT22;10992;48.170;8.596;2022-08-02T06:00:09;20.90;99.90
21662;DHT22;10992;48.170;8.596;2022-08-02T06:06:04;22.30;99.90
21662;DHT22;10992;48.170;8.596;2022-08-02T06:08:41;25.10;99.90
21662;DHT22;10992;48.170;8.596;2022-08-02T06:11:22;24.20;99.90
21662;DHT22;10992;48.170;8.596;2022-08-02T06:13:50;25.10;99.90
21662;DHT22;10992;48.170;8.596;2022-08-02T06:16:18;25.30;99.90
21662;DHT22;10992;48.170;8.596;2022-08-02T06:18:59;25.00;99.90
21662;DHT22;10992;48.170;8.596;2022-08-02T06:21:26;23.90;99.90
21662;DHT22;10992;48.170;8.596;2022-08-02T06:24:17;23.20;99.90
21662;DHT22;10992;48.170;8.596;2022-08-02T06:26:44;22.50;99.90
21662;DHT22;10992;48.170;8.596;2022-08-02T06:29:13;22.70;99.90
21662;DHT22;10992;48.170;8.596;2022-08-02T06:31:40;23.00;99.90
21662;DHT22;10992;48.170;8.596;2022-08-02T06:34:10;23.70;99.90
21662;DHT22;10992;48.170;8.596;2022-08-02T06:39:58;24.00;99.90
21662;DHT22;10992;48.170;8.596;2022-08-02T06:42:40;25.90;99.90
21662;DHT22;10992;48.170;8.596;2022-08-02T06:45:09;26.60;99.90
21662;DHT22;10992;48.170;8.596;2022-08-02T06:47:36;25.50;99.90
21662;DHT22;10992;48.170;8.596;2022-08-02T06:50:03;24.90;99.90
21662;DHT22;10992;48.170;8.596;2022-08-02T06:52:31;24.70;99.90
21662;DHT22;10992;48.170;8.596;2022-08-02T06:54:59;23.50;99.90
21662;DHT22;10992;48.170;8.596;2022-08-02T06:57:28;24.10;99.90
21662;DHT22;10992;48.170;8.596;2022-08-02T06:59:55;25.10;99.90
21662;DHT22;10992;48.170;8.596;2022-08-02T07:02:23;27.20;99.90
21662;DHT22;10992;48.170;8.596;2022-08-02T07:04:50;28.60;99.90
21662;DHT22;10992;48.170;8.596;2022-08-02T07:07:17;29.80;99.90
21662;DHT22;10992;48.170;8.596;2022-08-02T07:09:44;30.80;99.90
21662;DHT22;10992;48.170;8.596;2022-08-02T07:12:28;31.10;99.90
21662;DHT22;10992;48.170;8.596;2022-08-02T07:14:56;31.40;99.90
21662;DHT22;10992;48.170;8.596;2022-08-02T07:17:24;32.10;99.90
21662;DHT22;10992;48.170;8.596;2022-08-02T07:19:51;32.30;99.90
21662;DHT22;10992;48.170;8.596;2022-08-02T07:22:17;31.00;99.90
21662;DHT22;10992;48.170;8.596;2022-08-02T07:24:49;31.00;99.90
21662;DHT22;10992;48.170;8.596;2022-08-02T07:27:17;30.80;99.90
21662;DHT22;10992;48.170;8.596;2022-08-02T07:29:50;31.30;99.90
21662;DHT22;10992;48.170;8.596;2022-08-02T07:32:20;31.80;99.90
21662;DHT22;10992;48.170;8.596;2022-08-02T07:34:48;30.10;99.90
21662;DHT22;10992;48.170;8.596;2022-08-02T07:37:20;31.10;99.90
21662;DHT22;10992;48.170;8.596;2022-08-02T07:40:08;30.60;99.90
21662;DHT22;10992;48.170;8.596;2022-08-02T07:42:42;30.10;99.90
21662;DHT22;10992;48.170;8.596;2022-08-02T07:45:10;30.40;99.90
21662;DHT22;10992;48.170;8.596;2022-08-02T07:47:39;30.50;99.90
21662;DHT22;10992;48.170;8.596;2022-08-02T07:50:07;30.90;99.90
21662;DHT22;10992;48.170;8.596;2022-08-02T07:52:34;30.70;99.90
21662;DHT22;10992;48.170;8.596;2022-08-02T07:55:01;31.00;99.90
21662;DHT22;10992;48.170;8.596;2022-08-02T07:57:28;32.10;99.90
21662;DHT22;10992;48.170;8.596;2022-08-02T07:59:55;32.90;99.90
21662;DHT22;10992;48.170;8.596;2022-08-02T08:02:22;32.90;99.90
21662;DHT22;10992;48.170;8.596;2022-08-02T08:04:52;33.30;99.90
21662;DHT22;10992;48.170;8.596;2022-08-02T08:07:19;32.80;99.90
21662;DHT22;10992;48.170;8.596;2022-08-02T08:09:46;31.90;99.90
21662;DHT22;10992;48.170;8.596;2022-08-02T08:12:19;32.00;99.90
21662;DHT22;10992;48.170;8.596;2022-08-02T08:14:46;32.90;99.90
21662;DHT22;10992;48.170;8.596;2022-08-02T08:17:13;33.50;99.90
21662;DHT22;10992;48.170;8.596;2022-08-02T08:19:40;32.10;99.90
21662;DHT22;10992;48.170;8.596;2022-08-02T08:22:20;32.40;99.90
21662;DHT22;10992;48.170;8.596;2022-08-02T08:24:48;32.80;99.90
21662;DHT22;10992;48.170;8.596;2022-08-02T08:27:15;30.50;99.90
21662;DHT22;10992;48.170;8.596;2022-08-02T08:29:43;30.40;99.90
21662;DHT22;10992;48.170;8.596;2022-08-02T08:32:11;30.90;99.90
21662;DHT22;10992;48.170;8.596;2022-08-02T08:34:47;32.00;99.90
21662;DHT22;10992;48.170;8.596;2022-08-02T08:37:15;30.90;99.90
21662;DHT22;10992;48.170;8.596;2022-08-02T08:39:44;30.20;99.90
21662;DHT22;10992;48.170;8.596;2022-08-02T08:42:29;30.30;99.90
21662;DHT22;10992;48.170;8.596;2022-08-02T08:44:57;31.40;99.90
21662;DHT22;10992;48.170;8.596;2022-08-02T08:47:37;31.00;99.90
21662;DHT22;10992;48.170;8.596;2022-08-02T08:50:07;31.40;99.90
21662;DHT22;10992;48.170;8.596;2022-08-02T08:52:48;32.30;99.90
21662;DHT22;10992;48.170;8.596;2022-08-02T08:55:17;33.30;99.90
21662;DHT22;10992;48.170;8.596;2022-08-02T08:57:48;33.90;99.90
21662;DHT22;10992;48.170;8.596;2022-08-02T09:00:15;33.10;99.90
21662;DHT22;10992;48.170;8.596;2022-08-02T09:02:43;33.50;99.40
21662;DHT22;10992;48.170;8.596;2022-08-02T09:05:11;31.50;99.90
21662;DHT22;10992;48.170;8.596;2022-08-02T09:07:39;30.60;99.90
21662;DHT22;10992;48.170;8.596;2022-08-02T09:16:03;29.10;99.90
21662;DHT22;10992;48.170;8.596;2022-08-02T09:18:44;28.40;99.90
21662;DHT22;10992;48.170;8.596;2022-08-02T09:21:17;28.40;99.90
21662;DHT22;10992;48.170;8.596;2022-08-02T09:23:46;28.50;99.90
21662;DHT22;10992;48.170;8.596;2022-08-02T09:26:15;28.50;99.90
21662;DHT22;10992;48.170;8.596;2022-08-02T09:28:44;28.30;99.90
21662;DHT22;10992;48.170;8.596;2022-08-02T09:31:13;28.10;99.90
21662;DHT22;10992;48.170;8.596;2022-08-02T09:33:42;28.10;99.90
21662;DHT22;10992;48.170;8.596;2022-08-02T09:36:11;28.40;99.90
21662;DHT22;10992;48.170;8.596;2022-08-02T09:38:40;29.50;99.90
21662;DHT22;10992;48.170;8.596;2022-08-02T09:41:29;30.10;99.90
21662;DHT22;10992;48.170;8.596;2022-08-02T09:43:57;30.00;99.90
21662;DHT22;10992;48.170;8.596;2022-08-02T09:46:39;31.40;99.90
21662;DHT22;10992;48.170;8.596;2022-08-02T09:49:11;31.60;99.90
21662;DHT22;10992;48.170;8.596;2022-08-02T09:54:24;31.70;99.90
21662;DHT22;10992;48.170;8.596;2022-08-02T09:59:21;32.50;99.10
21662;DHT22;10992;48.170;8.596;2022-08-02T10:01:51;32.80;99.90
21662;DHT22;10992;48.170;8.596;2022-08-02T10:04:30;32.90;99.10
21662;DHT22;10992;48.170;8.596;2022-08-02T10:07:06;33.10;97.10
21662;DHT22;10992;48.170;8.596;2022-08-02T10:09:33;33.60;97.00
21662;DHT22;10992;48.170;8.596;2022-08-02T10:12:03;33.20;97.50
21662;DHT22;10992;48.170;8.596;2022-08-02T10:14:34;32.10;97.40
21662;DHT22;10992;48.170;8.596;2022-08-02T10:17:02;31.20;98.40
21662;DHT22;10992;48.170;8.596;2022-08-02T10:19:30;30.60;99.90
21662;DHT22;10992;48.170;8.596;2022-08-02T10:22:18;31.70;99.00
21662;DHT22;10992;48.170;8.596;2022-08-02T10:24:47;31.70;98.50
21662;DHT22;10992;48.170;8.596;2022-08-02T10:27:16;33.20;98.30
21662;DHT22;10992;48.170;8.596;2022-08-02T10:29:47;33.30;97.50
21662;DHT22;10992;48.170;8.596;2022-08-02T10:32:36;32.90;98.40
21662;DHT22;10992;48.170;8.596;2022-08-02T10:35:09;33.30;97.60
21662;DHT22;10992;48.170;8.596;2022-08-02T10:37:55;32.70;97.30
21662;DHT22;10992;48.170;8.596;2022-08-02T10:40:23;32.50;97.90
21662;DHT22;10992;48.170;8.596;2022-08-02T10:42:54;32.00;97.80
21662;DHT22;10992;48.170;8.596;2022-08-02T10:45:21;30.50;98.70
21662;DHT22;10992;48.170;8.596;2022-08-02T10:53:32;30.80;99.90
21662;DHT22;10992;48.170;8.596;2022-08-02T10:56:01;31.70;97.60
21662;DHT22;10992;48.170;8.596;2022-08-02T10:58:30;30.30;99.20
21662;DHT22;10992;48.170;8.596;2022-08-02T11:01:03;31.00;98.00
21662;DHT22;10992;48.170;8.596;2022-08-02T11:06:08;32.70;96.40
21662;DHT22;10992;48.170;8.596;2022-08-02T11:09:29;32.60;95.30
21662;DHT22;10992;48.170;8.596;2022-08-02T11:12:02;32.00;96.50
21662;DHT22;10992;48.170;8.596;2022-08-02T11:14:30;32.00;97.60
21662;DHT22;10992;48.170;8.596;2022-08-02T11:19:25;31.90;96.30
21662;DHT22;10992;48.170;8.596;2022-08-02T11:22:00;33.10;95.60
21662;DHT22;10992;48.170;8.596;2022-08-02T11:24:29;33.20;94.80
21662;DHT22;10992;48.170;8.596;2022-08-02T11:26:58;34.00;94.60
21662;DHT22;10992;48.170;8.596;2022-08-02T11:29:37;33.80;95.30
21662;DHT22;10992;48.170;8.596;2022-08-02T11:32:06;33.30;95.90
21662;DHT22;10992;48.170;8.596;2022-08-02T11:34:34;33.50;95.10
21662;DHT22;10992;48.170;8.596;2022-08-02T11:37:04;33.30;95.00
21662;DHT22;10992;48.170;8.596;2022-08-02T11:39:32;33.10;94.60
21662;DHT22;10992;48.170;8.596;2022-08-02T11:42:00;31.60;95.80
21662;DHT22;10992;48.170;8.596;2022-08-02T11:44:28;31.40;96.20
21662;DHT22;10992;48.170;8.596;2022-08-02T11:46:58;30.70;96.40
21662;DHT22;10992;48.170;8.596;2022-08-02T11:49:26;31.80;96.10
21662;DHT22;10992;48.170;8.596;2022-08-02T11:52:02;32.60;95.60
21662;DHT22;10992;48.170;8.596;2022-08-02T11:54:38;31.50;95.40
21662;DHT22;10992;48.170;8.596;2022-08-02T11:59:53;32.30;94.80
21662;DHT22;10992;48.170;8.596;2022-08-02T12:02:23;32.10;95.80
21662;DHT22;10992;48.170;8.596;2022-08-02T12:07:29;32.20;95.40
21662;DHT22;10992;48.170;8.596;2022-08-02T12:10:12;30.80;95.50
21662;DHT22;10992;48.170;8.596;2022-08-02T12:12:57;30.30;96.50
21662;DHT22;10992;48.170;8.596;2022-08-02T12:15:32;30.40;96.10
21662;DHT22;10992;48.170;8.596;2022-08-02T12:18:00;30.60;95.90
21662;DHT22;10992;48.170;8.596;2022-08-02T12:20:46;31.20;95.70
21662;DHT22;10992;48.170;8.596;2022-08-02T12:23:12;30.60;96.00
21662;DHT22;10992;48.170;8.596;2022-08-02T12:25:40;30.10;95.80
21662;DHT22;10992;48.170;8.596;2022-08-02T12:28:22;30.80;95.80
21662;DHT22;10992;48.170;8.596;2022-08-02T12:30:55;31.10;95.20
21662;DHT22;10992;48.170;8.596;2022-08-02T12:33:28;31.80;95.10
21662;DHT22;10992;48.170;8.596;2022-08-02T12:35:55;32.70;93.90
21662;DHT22;10992;48.170;8.596;2022-08-02T12:38:22;33.30;93.20
21662;DHT22;10992;48.170;8.596;2022-08-02T12:40:51;33.00;94.30
21662;DHT22;10992;48.170;8.596;2022-08-02T12:43:22;33.00;94.10
21662;DHT22;10992;48.170;8.596;2022-08-02T12:45:51;33.30;93.40
21662;DHT22;10992;48.170;8.596;2022-08-02T12:48:37;31.80;93.70
21662;DHT22;10992;48.170;8.596;2022-08-02T12:54:24;30.80;94.20
21662;DHT22;10992;48.170;8.596;2022-08-02T12:57:09;30.10;95.00
21662;DHT22;10992;48.170;8.596;2022-08-02T12:59:38;30.00;95.10
21662;DHT22;10992;48.170;8.596;2022-08-02T13:02:07;29.40;95.90
21662;DHT22;10992;48.170;8.596;2022-08-02T13:04:37;29.80;95.60
21662;DHT22;10992;48.170;8.596;2022-08-02T13:07:04;30.80;95.50
21662;DHT22;10992;48.170;8.596;2022-08-02T13:09:39;31.90;94.80
21662;DHT22;10992;48.170;8.596;2022-08-02T13:12:08;31.10;94.40
21662;DHT22;10992;48.170;8.596;2022-08-02T13:14:36;31.30;94.90
21662;DHT22;10992;48.170;8.596;2022-08-02T13:17:08;32.10;94.20
21662;DHT22;10992;48.170;8.596;2022-08-02T13:19:35;31.80;94.20
21662;DHT22;10992;48.170;8.596;2022-08-02T13:22:02;32.10;94.20
21662;DHT22;10992;48.170;8.596;2022-08-02T13:24:31;32.30;93.30
21662;DHT22;10992;48.170;8.596;2022-08-02T13:27:18;32.10;93.30
21662;DHT22;10992;48.170;8.596;2022-08-02T13:29:48;32.00;93.30
21662;DHT22;10992;48.170;8.596;2022-08-02T13:32:15;31.80;93.60
21662;DHT22;10992;48.170;8.596;2022-08-02T13:34:42;31.70;94.00
21662;DHT22;10992;48.170;8.596;2022-08-02T13:37:10;30.90;93.60
21662;DHT22;10992;48.170;8.596;2022-08-02T13:39:37;29.00;95.30
21662;DHT22;10992;48.170;8.596;2022-08-02T13:42:04;28.60;96.20
21662;DHT22;10992;48.170;8.596;2022-08-02T13:44:32;28.40;96.30
21662;DHT22;10992;48.170;8.596;2022-08-02T13:47:00;28.30;96.30
21662;DHT22;10992;48.170;8.596;2022-08-02T13:49:27;28.70;96.60
21662;DHT22;10992;48.170;8.596;2022-08-02T13:52:14;29.30;96.50
21662;DHT22;10992;48.170;8.596;2022-08-02T13:54:41;30.00;96.20
21662;DHT22;10992;48.170;8.596;2022-08-02T13:57:08;30.80;95.00
21662;DHT22;10992;48.170;8.596;2022-08-02T13:59:37;31.50;93.90
21662;DHT22;10992;48.170;8.596;2022-08-02T14:02:24;31.40;93.40
21662;DHT22;10992;48.170;8.596;2022-08-02T14:04:51;31.60;93.40
21662;DHT22;10992;48.170;8.596;2022-08-02T14:07:18;31.50;93.50
21662;DHT22;10992;48.170;8.596;2022-08-02T14:09:45;32.00;93.80
21662;DHT22;10992;48.170;8.596;2022-08-02T14:12:12;32.10;93.30
21662;DHT22;10992;48.170;8.596;2022-08-02T14:14:39;31.50;93.50
21662;DHT22;10992;48.170;8.596;2022-08-02T14:17:06;31.10;93.80
21662;DHT22;10992;48.170;8.596;2022-08-02T14:19:33;30.50;94.40
21662;DHT22;10992;48.170;8.596;2022-08-02T14:22:00;30.10;94.30
21662;DHT22;10992;48.170;8.596;2022-08-02T14:24:38;29.80;94.90
21662;DHT22;10992;48.170;8.596;2022-08-02T14:27:06;30.10;94.80
21662;DHT22;10992;48.170;8.596;2022-08-02T14:29:33;30.00;94.90
21662;DHT22;10992;48.170;8.596;2022-08-02T14:32:00;29.50;94.90
21662;DHT22;10992;48.170;8.596;2022-08-02T14:34:27;29.20;95.30
21662;DHT22;10992;48.170;8.596;2022-08-02T14:36:55;29.40;95.30
21662;DHT22;10992;48.170;8.596;2022-08-02T14:39:22;29.10;95.20
21662;DHT22;10992;48.170;8.596;2022-08-02T14:41:51;28.70;95.60
21662;DHT22;10992;48.170;8.596;2022-08-02T14:44:29;29.00;96.20
21662;DHT22;10992;48.170;8.596;2022-08-02T14:46:56;30.00;95.30
21662;DHT22;10992;48.170;8.596;2022-08-02T14:49:23;30.60;94.40
21662;DHT22;10992;48.170;8.596;2022-08-02T14:51:56;29.80;94.50
21662;DHT22;10992;48.170;8.596;2022-08-02T14:54:24;30.30;94.80
21662;DHT22;10992;48.170;8.596;2022-08-02T14:56:59;30.40;94.30
21662;DHT22;10992;48.170;8.596;2022-08-02T14:59:27;30.40;95.20
21662;DHT22;10992;48.170;8.596;2022-08-02T15:01:54;30.70;94.20
21662;DHT22;10992;48.170;8.596;2022-08-02T15:04:21;31.20;93.80
21662;DHT22;10992;48.170;8.596;2022-08-02T15:06:49;31.30;92.80
21662;DHT22;10992;48.170;8.596;2022-08-02T15:09:16;31.40;94.20
21662;DHT22;10992;48.170;8.596;2022-08-02T15:11:43;31.40;93.30
21662;DHT22;10992;48.170;8.596;2022-08-02T15:14:18;31.30;93.40
21662;DHT22;10992;48.170;8.596;2022-08-02T15:16:54;31.40;93.50
21662;DHT22;10992;48.170;8.596;2022-08-02T15:19:27;31.90;92.90
21662;DHT22;10992;48.170;8.596;2022-08-02T15:22:14;31.30;92.80
21662;DHT22;10992;48.170;8.596;2022-08-02T15:24:46;31.10;93.00
21662;DHT22;10992;48.170;8.596;2022-08-02T15:27:14;31.30;92.90
21662;DHT22;10992;48.170;8.596;2022-08-02T15:29:45;30.40;93.10
21662;DHT22;10992;48.170;8.596;2022-08-02T15:32:12;30.40;93.60
21662;DHT22;10992;48.170;8.596;2022-08-02T15:34:40;30.30;93.40
21662;DHT22;10992;48.170;8.596;2022-08-02T15:37:07;30.10;94.00
21662;DHT22;10992;48.170;8.596;2022-08-02T15:39:33;30.50;93.40
21662;DHT22;10992;48.170;8.596;2022-08-02T15:42:01;30.30;93.10
21662;DHT22;10992;48.170;8.596;2022-08-02T15:44:28;29.80;93.80
21662;DHT22;10992;48.170;8.596;2022-08-02T15:46:55;29.70;93.90
21662;DHT22;10992;48.170;8.596;2022-08-02T15:49:23;30.00;94.30
21662;DHT22;10992;48.170;8.596;2022-08-02T15:51:51;29.90;93.50
21662;DHT22;10992;48.170;8.596;2022-08-02T15:54:18;30.10;92.90
21662;DHT22;10992;48.170;8.596;2022-08-02T15:56:45;30.20;92.90
21662;DHT22;10992;48.170;8.596;2022-08-02T15:59:13;29.60;92.90
21662;DHT22;10992;48.170;8.596;2022-08-02T16:01:40;29.80;93.20
21662;DHT22;10992;48.170;8.596;2022-08-02T16:04:14;29.80;93.00
21662;DHT22;10992;48.170;8.596;2022-08-02T16:06:41;29.80;93.20
21662;DHT22;10992;48.170;8.596;2022-08-02T16:09:08;29.90;93.10
21662;DHT22;10992;48.170;8.596;2022-08-02T16:11:35;29.80;93.00
21662;DHT22;10992;48.170;8.596;2022-08-02T16:14:02;29.90;92.70
21662;DHT22;10992;48.170;8.596;2022-08-02T16:16:34;29.20;92.80
21662;DHT22;10992;48.170;8.596;2022-08-02T16:19:03;29.10;93.30
21662;DHT22;10992;48.170;8.596;2022-08-02T16:21:51;28.90;93.50
21662;DHT22;10992;48.170;8.596;2022-08-02T16:24:18;29.00;93.70
21662;DHT22;10992;48.170;8.596;2022-08-02T16:26:45;29.00;93.30
21662;DHT22;10992;48.170;8.596;2022-08-02T16:29:13;28.90;92.90
21662;DHT22;10992;48.170;8.596;2022-08-02T16:31:46;28.80;93.40
21662;DHT22;10992;48.170;8.596;2022-08-02T16:34:13;28.60;93.40
21662;DHT22;10992;48.170;8.596;2022-08-02T16:36:40;28.60;93.40
21662;DHT22;10992;48.170;8.596;2022-08-02T16:39:07;28.50;93.20
21662;DHT22;10992;48.170;8.596;2022-08-02T16:41:35;28.30;93.00
21662;DHT22;10992;48.170;8.596;2022-08-02T16:44:21;28.10;94.10
21662;DHT22;10992;48.170;8.596;2022-08-02T16:47:08;28.10;93.20
21662;DHT22;10992;48.170;8.596;2022-08-02T16:49:40;28.10;93.70
21662;DHT22;10992;48.170;8.596;2022-08-02T16:52:27;28.10;93.20